LESA/SLM METAR and TAF weather

Enter ICAO airport designator
Station Type Date Time Source
LESA METAR 2019/10/20 19:00 UTC NOAA

LESA 201900Z AUTO VRB02KT 9999 FEW036 08/05 Q1015


Station Type Date Time Source
LESA Decoded METAR 2019/10/20 19:00 UTC NOAA

Salamanca / Matacan, Spain (LESA) 40-57N 005-30W 795M
Oct 20, 2019 - 03:00 PM EDT / 2019.10.20 1900 UTC
Wind: Variable at 2 MPH (2 KT):0
Visibility: greater than 7 mile(s):0
Sky conditions: mostly clear
Temperature: 46 F (8 C)
Dew Point: 41 F (5 C)
Relative Humidity: 81%
Pressure (altimeter): 29.97 in. Hg (1015 hPa)
ob: LESA 201900Z AUTO VRB02KT 9999 FEW036 08/05 Q1015
cycle: 19

Station Type Date Time Source
LESA TAF 2019/10/20 18:27 UTC NOAA

TAF LESA 201700Z 2018/2118 36005KT 9999 SCT030 TX13/2115Z TN00/2106Z PROB30
TEMPO 2018/2022 4000 RA BKN009 SCT025CB
TEMPO 2101/2111 2500 BR
TEMPO 2101/2110 0300 FG OVC001

Example: see airport list